Time,TemperatureF,DewpointF,PressureIn,WindDirection,WindDirectionDegrees,WindSpeedMPH,WindSpeedGustMPH,Humidity,HourlyPrecipIn,Conditions,Clouds,dailyrainin,SoftwareType,DateUTC
2013-04-09 00:00:00,43.2,40.2,29.93,NW,323,3.0,3.0,89,0.00,,,0.00,WeatherCatV1.15B25,2013-04-09 04:00:00,
2013-04-09 00:01:00,43.1,40.1,29.93,WNW,300,2.0,8.0,89,0.00,,,0.00,WeatherCatV1.15B25,2013-04-09 04:01:00,
2013-04-09 00:04:00,43.0,40.3,29.93,NW,313,4.0,7.0,90,0.00,,,0.00,WeatherCatV1.15B25,2013-04-09 04:04:00,
2013-04-09 00:09:00,43.0,40.3,29.93,NW,326,6.0,8.0,90,0.00,,,0.00,WeatherCatV1.15B25,2013-04-09 04:09:00,
2013-04-09 00:14:00,42.9,40.2,29.93,NNW,327,4.0,7.0,90,0.00,,,0.00,WeatherCatV1.15B25,2013-04-09 04:14:00,
2013-04-09 00:19:00,42.8,40.1,29.93,WNW,303,3.0,6.0,90,0.00,,,0.00,WeatherCatV1.15B25,2013-04-09 04:19:00,
2013-04-09 00:24:00,42.6,39.9,29.94,NW,306,3.0,5.0,90,0.00,,,0.00,WeatherCatV1.15B25,2013-04-09 04:24:00,
2013-04-09 00:29:00,42.5,40.1,29.94,NW,317,3.0,8.0,91,0.00,,,0.00,WeatherCatV1.15B25,2013-04-09 04:29:00,
2013-04-09 00:34:00,42.4,40.0,29.95,NW,304,3.0,5.0,91,0.00,,,0.00,WeatherCatV1.15B25,2013-04-09 04:34:00,
2013-04-09 00:36:00,42.3,39.9,29.95,NW,310,4.0,8.0,91,0.00,,,0.00,WeatherCatV1.15B25,2013-04-09 04:36:00,
2013-04-09 00:41:00,42.3,39.9,29.95,NW,317,3.0,6.0,91,0.00,,,0.00,WeatherCatV1.15B25,2013-04-09 04:41:00,
2013-04-09 00:46:00,42.2,39.8,29.95,NW,305,2.0,3.0,91,0.00,,,0.00,WeatherCatV1.15B25,2013-04-09 04:46:00,
2013-04-09 00:51:00,42.2,40.0,29.95,NNW,327,5.0,7.0,92,0.00,,,0.00,WeatherCatV1.15B25,2013-04-09 04:51:00,
2013-04-09 00:56:00,42.2,40.0,29.95,NNW,339,4.0,7.0,92,0.00,,,0.00,WeatherCatV1.15B25,2013-04-09 04:56:00,
2013-04-09 01:01:00,42.2,40.0,29.95,WNW,303,4.0,5.0,92,0.00,,,0.00,WeatherCatV1.15B25,2013-04-09 05:01:00,
2013-04-09 01:06:00,42.2,40.0,29.95,NNW,342,3.0,4.0,92,0.00,,,0.00,WeatherCatV1.15B25,2013-04-09 05:06:00,
2013-04-09 01:11:00,42.2,40.0,29.95,NNW,340,3.0,5.0,92,0.00,,,0.00,WeatherCatV1.15B25,2013-04-09 05:11:00,
2013-04-09 01:16:00,42.1,39.9,29.95,North,349,2.0,4.0,92,0.00,,,0.00,WeatherCatV1.15B25,2013-04-09 05:16:00,
2013-04-09 01:21:00,42.0,39.8,29.95,North,0,6.0,8.0,92,0.00,,,0.00,WeatherCatV1.15B25,2013-04-09 05:21:00,
2013-04-09 01:26:00,42.0,39.8,29.95,North,351,5.0,6.0,92,0.00,,,0.00,WeatherCatV1.15B25,2013-04-09 05:26:00,
2013-04-09 01:31:00,42.1,40.2,29.96,NNW,346,6.0,7.0,93,0.00,,,0.00,WeatherCatV1.15B25,2013-04-09 05:31:00,
2013-04-09 01:36:00,42.1,40.2,29.95,North,349,6.0,7.0,93,0.00,,,0.00,WeatherCatV1.15B25,2013-04-09 05:36:00,
2013-04-09 01:41:00,42.2,40.3,29.96,North,351,6.0,7.0,93,0.00,,,0.00,WeatherCatV1.15B25,2013-04-09 05:41:00,
2013-04-09 01:46:00,42.2,40.3,29.96,NNW,332,4.0,5.0,93,0.00,,,0.00,WeatherCatV1.15B25,2013-04-09 05:46:00,
2013-04-09 01:51:00,42.2,40.3,29.96,NW,308,3.0,4.0,93,0.00,,,0.00,WeatherCatV1.15B25,2013-04-09 05:51:00,
2013-04-09 01:56:00,42.2,40.3,29.97,NW,314,3.0,5.0,93,0.00,,,0.00,WeatherCatV1.15B25,2013-04-09 05:56:00,
2013-04-09 02:01:00,42.2,40.3,29.97,NNW,339,2.0,4.0,93,0.00,,,0.00,WeatherCatV1.15B25,2013-04-09 06:01:00,
2013-04-09 02:06:00,42.2,40.3,29.97,NW,319,2.0,3.0,93,0.00,,,0.00,WeatherCatV1.15B25,2013-04-09 06:06:00,
2013-04-09 02:11:00,42.3,40.4,29.97,NNW,338,1.0,4.0,93,0.00,,,0.00,WeatherCatV1.15B25,2013-04-09 06:11:00,
2013-04-09 02:16:00,42.4,40.5,29.97,NNW,340,2.0,3.0,93,0.00,,,0.00,WeatherCatV1.15B25,2013-04-09 06:16:00,
2013-04-09 02:21:00,42.4,40.5,29.98,NW,317,2.0,4.0,93,0.00,,,0.00,WeatherCatV1.15B25,2013-04-09 06:21:00,
2013-04-09 02:26:00,42.5,40.6,29.97,North,355,3.0,5.0,93,0.00,,,0.00,WeatherCatV1.15B25,2013-04-09 06:26:00,
2013-04-09 02:31:00,42.5,40.9,29.98,NW,322,2.0,4.0,94,0.00,,,0.00,WeatherCatV1.15B25,2013-04-09 06:31:00,
2013-04-09 02:36:00,42.6,40.7,29.98,WNW,301,2.0,5.0,93,0.00,,,0.00,WeatherCatV1.15B25,2013-04-09 06:36:00,
2013-04-09 02:41:00,42.7,41.1,29.98,NNW,333,2.0,7.0,94,0.00,,,0.00,WeatherCatV1.15B25,2013-04-09 06:41:00,
2013-04-09 02:46:00,42.7,40.8,29.98,NNW,347,2.0,2.0,93,0.00,,,0.00,WeatherCatV1.15B25,2013-04-09 06:46:00,
2013-04-09 02:51:00,42.7,40.8,29.98,NW,321,2.0,4.0,93,0.00,,,0.00,WeatherCatV1.15B25,2013-04-09 06:51:00,
2013-04-09 02:56:00,42.7,40.8,29.98,NW,304,1.0,2.0,93,0.00,,,0.00,WeatherCatV1.15B25,2013-04-09 06:56:00,
2013-04-09 03:01:00,42.6,40.7,29.97,NNW,338,3.0,4.0,93,0.00,,,0.00,WeatherCatV1.15B25,2013-04-09 07:01:00,
2013-04-09 03:06:00,42.5,40.6,29.97,NNW,346,3.0,4.0,93,0.00,,,0.00,WeatherCatV1.15B25,2013-04-09 07:06:00,
2013-04-09 03:11:00,42.5,40.6,29.97,NNW,336,2.0,4.0,93,0.00,,,0.00,WeatherCatV1.15B25,2013-04-09 07:11:00,
2013-04-09 03:16:00,42.5,40.6,29.97,NNW,346,3.0,5.0,93,0.00,,,0.00,WeatherCatV1.15B25,2013-04-09 07:16:00,
2013-04-09 03:22:00,42.5,40.6,29.98,NNW,329,2.0,3.0,93,0.00,,,0.00,WeatherCatV1.15B25,2013-04-09 07:22:00,
2013-04-09 03:27:00,42.5,40.6,29.98,NNW,332,1.0,2.0,93,0.00,,,0.00,WeatherCatV1.15B25,2013-04-09 07:27:00,
2013-04-09 03:32:00,42.4,40.5,29.98,NNW,332,1.0,4.0,93,0.00,,,0.00,WeatherCatV1.15B25,2013-04-09 07:32:00,
2013-04-09 03:37:00,42.4,40.5,29.98,NNW,332,1.0,2.0,93,0.00,,,0.00,WeatherCatV1.15B25,2013-04-09 07:37:00,
2013-04-09 03:42:00,42.4,40.5,29.98,North,355,3.0,5.0,93,0.00,,,0.00,WeatherCatV1.15B25,2013-04-09 07:42:00,
2013-04-09 03:47:00,42.4,40.5,29.98,NNE,15,4.0,5.0,93,0.00,,,0.00,WeatherCatV1.15B25,2013-04-09 07:47:00,
2013-04-09 03:52:00,42.3,40.4,29.98,NNE,13,2.0,3.0,93,0.00,,,0.00,WeatherCatV1.15B25,2013-04-09 07:52:00,
2013-04-09 03:57:00,42.3,40.4,29.98,North,10,2.0,3.0,93,0.00,,,0.00,WeatherCatV1.15B25,2013-04-09 07:57:00,
2013-04-09 04:02:00,42.3,40.7,29.99,North,10,0.0,1.0,94,0.00,,,0.00,WeatherCatV1.15B25,2013-04-09 08:02:00,
2013-04-09 04:07:00,42.3,40.7,29.98,North,10,1.0,2.0,94,0.00,,,0.00,WeatherCatV1.15B25,2013-04-09 08:07:00,
2013-04-09 04:12:00,42.2,40.6,29.99,North,10,0.0,0.0,94,0.00,,,0.00,WeatherCatV1.15B25,2013-04-09 08:12:00,
2013-04-09 04:17:00,42.2,40.6,29.99,North,10,2.0,2.0,94,0.00,,,0.00,WeatherCatV1.15B25,2013-04-09 08:17:00,
2013-04-09 04:22:00,42.2,40.6,29.99,NE,46,0.0,2.0,94,0.00,,,0.00,WeatherCatV1.15B25,2013-04-09 08:22:00,
2013-04-09 04:27:00,42.2,40.6,30.00,NE,46,0.0,2.0,94,0.00,,,0.00,WeatherCatV1.15B25,2013-04-09 08:27:00,
2013-04-09 04:32:00,42.2,40.6,30.00,NE,46,0.0,1.0,94,0.00,,,0.00,WeatherCatV1.15B25,2013-04-09 08:32:00,
2013-04-09 04:37:00,42.2,40.6,30.00,NE,50,3.0,3.0,94,0.00,,,0.00,WeatherCatV1.15B25,2013-04-09 08:37:00,
2013-04-09 04:42:00,42.1,40.5,30.00,NE,53,2.0,3.0,94,0.00,,,0.00,WeatherCatV1.15B25,2013-04-09 08:42:00,
2013-04-09 04:47:00,42.1,40.5,30.00,NE,54,2.0,3.0,94,0.00,,,0.00,WeatherCatV1.15B25,2013-04-09 08:47:00,
2013-04-09 04:52:00,42.0,40.4,30.00,NE,54,1.0,2.0,94,0.00,,,0.00,WeatherCatV1.15B25,2013-04-09 08:52:00,
2013-04-09 04:57:00,42.0,40.4,30.00,NE,54,1.0,2.0,94,0.00,,,0.00,WeatherCatV1.15B25,2013-04-09 08:57:00,
2013-04-09 05:02:00,42.0,40.4,30.00,NNE,28,2.0,4.0,94,0.00,,,0.00,WeatherCatV1.15B25,2013-04-09 09:02:00,
2013-04-09 05:07:00,42.0,40.4,30.00,NE,56,3.0,3.0,94,0.00,,,0.00,WeatherCatV1.15B25,2013-04-09 09:07:00,
2013-04-09 05:12:00,42.0,40.4,30.00,ENE,76,2.0,6.0,94,0.00,,,0.00,WeatherCatV1.15B25,2013-04-09 09:12:00,
2013-04-09 05:17:00,42.0,40.4,30.00,ENE,70,3.0,5.0,94,0.00,,,0.00,WeatherCatV1.15B25,2013-04-09 09:17:00,
2013-04-09 05:22:00,42.0,40.4,30.00,ENE,67,1.0,2.0,94,0.00,,,0.00,WeatherCatV1.15B25,2013-04-09 09:22:00,
2013-04-09 05:27:00,42.1,40.5,30.01,ENE,66,2.0,3.0,94,0.00,,,0.00,WeatherCatV1.15B25,2013-04-09 09:27:00,
2013-04-09 05:32:00,42.1,40.5,30.00,ENE,66,2.0,4.0,94,0.00,,,0.00,WeatherCatV1.15B25,2013-04-09 09:32:00,
2013-04-09 05:37:00,42.1,40.5,30.00,ENE,59,3.0,4.0,94,0.00,,,0.00,WeatherCatV1.15B25,2013-04-09 09:37:00,
2013-04-09 05:42:00,42.1,40.5,30.01,ENE,72,2.0,3.0,94,0.00,,,0.00,WeatherCatV1.15B25,2013-04-09 09:42:00,
2013-04-09 05:47:00,42.1,40.5,30.00,ENE,72,2.0,3.0,94,0.00,,,0.00,WeatherCatV1.15B25,2013-04-09 09:47:00,
2013-04-09 05:52:00,42.1,40.5,30.01,ENE,75,3.0,4.0,94,0.00,,,0.00,WeatherCatV1.15B25,2013-04-09 09:52:00,
2013-04-09 05:57:00,42.1,40.5,30.01,ENE,66,3.0,3.0,94,0.00,,,0.00,WeatherCatV1.15B25,2013-04-09 09:57:00,
2013-04-09 06:02:00,42.1,40.5,30.02,East,84,3.0,5.0,94,0.00,,,0.00,WeatherCatV1.15B25,2013-04-09 10:02:00,
2013-04-09 06:07:00,42.2,40.6,30.02,East,95,3.0,5.0,94,0.00,,,0.00,WeatherCatV1.15B25,2013-04-09 10:07:00,
2013-04-09 06:12:00,42.2,40.6,30.02,East,95,5.0,5.0,94,0.00,,,0.00,WeatherCatV1.15B25,2013-04-09 10:12:00,
2013-04-09 06:17:00,42.2,40.6,30.02,ESE,103,3.0,5.0,94,0.00,,,0.00,WeatherCatV1.15B25,2013-04-09 10:17:00,
2013-04-09 06:22:00,42.2,40.6,30.02,East,88,3.0,3.0,94,0.00,,,0.00,WeatherCatV1.15B25,2013-04-09 10:22:00,
2013-04-09 06:27:00,42.2,40.9,30.02,East,90,1.0,3.0,95,0.00,,,0.00,WeatherCatV1.15B25,2013-04-09 10:27:00,
2013-04-09 06:32:00,42.2,40.9,30.02,East,92,3.0,3.0,95,0.00,,,0.00,WeatherCatV1.15B25,2013-04-09 10:32:00,
2013-04-09 06:37:00,42.2,40.9,30.02,East,95,3.0,3.0,95,0.00,,,0.00,WeatherCatV1.15B25,2013-04-09 10:37:00,
2013-04-09 06:42:00,42.3,41.0,30.02,East,100,2.0,3.0,95,0.00,,,0.00,WeatherCatV1.15B25,2013-04-09 10:42:00,
2013-04-09 06:47:00,42.3,41.0,30.02,ESE,117,1.0,4.0,95,0.00,,,0.00,WeatherCatV1.15B25,2013-04-09 10:47:00,
2013-04-09 06:52:00,42.3,41.0,30.02,SE,127,2.0,7.0,95,0.00,,,0.00,WeatherCatV1.15B25,2013-04-09 10:52:00,
2013-04-09 06:57:00,42.3,41.0,30.02,ESE,105,2.0,3.0,95,0.00,,,0.00,WeatherCatV1.15B25,2013-04-09 10:57:00,
2013-04-09 07:02:00,42.4,41.1,30.02,ESE,122,5.0,7.0,95,0.00,,,0.00,WeatherCatV1.15B25,2013-04-09 11:02:00,
2013-04-09 07:07:00,42.4,41.1,30.02,ESE,119,3.0,4.0,95,0.00,,,0.00,WeatherCatV1.15B25,2013-04-09 11:07:00,
2013-04-09 07:12:00,42.4,41.1,30.02,ESE,116,5.0,5.0,95,0.00,,,0.00,WeatherCatV1.15B25,2013-04-09 11:12:00,
2013-04-09 07:17:00,42.4,41.1,30.02,ESE,115,5.0,8.0,95,0.00,,,0.00,WeatherCatV1.15B25,2013-04-09 11:17:00,
2013-04-09 07:22:00,42.4,41.1,30.02,ESE,105,3.0,4.0,95,0.00,,,0.00,WeatherCatV1.15B25,2013-04-09 11:22:00,
2013-04-09 07:27:00,42.5,41.2,30.02,ESE,108,2.0,7.0,95,0.00,,,0.00,WeatherCatV1.15B25,2013-04-09 11:27:00,
2013-04-09 07:32:00,42.5,41.2,30.02,SE,138,6.0,9.0,95,0.00,,,0.00,WeatherCatV1.15B25,2013-04-09 11:32:00,
2013-04-09 07:37:00,42.5,41.2,30.02,ESE,121,5.0,10.0,95,0.00,,,0.00,WeatherCatV1.15B25,2013-04-09 11:37:00,
2013-04-09 07:42:00,42.5,41.2,30.01,ESE,119,5.0,10.0,95,0.00,,,0.00,WeatherCatV1.15B25,2013-04-09 11:42:00,
2013-04-09 07:47:00,42.5,41.2,30.02,ESE,107,7.0,8.0,95,0.00,,,0.00,WeatherCatV1.15B25,2013-04-09 11:47:00,
2013-04-09 07:52:00,42.5,40.9,30.01,East,90,2.0,7.0,94,0.00,,,0.00,WeatherCatV1.15B25,2013-04-09 11:52:00,
2013-04-09 07:57:00,42.6,41.0,30.01,ESE,115,4.0,6.0,94,0.00,,,0.00,WeatherCatV1.15B25,2013-04-09 11:57:00,
2013-04-09 08:02:00,42.6,41.0,30.01,East,100,6.0,8.0,94,0.00,,,0.00,WeatherCatV1.15B25,2013-04-09 12:02:00,
2013-04-09 08:07:00,42.7,41.1,30.02,ESE,102,2.0,6.0,94,0.00,,,0.00,WeatherCatV1.15B25,2013-04-09 12:07:00,
2013-04-09 08:12:00,42.7,41.1,30.02,ESE,118,2.0,5.0,94,0.00,,,0.00,WeatherCatV1.15B25,2013-04-09 12:12:00,
2013-04-09 08:17:00,42.8,41.2,30.02,SE,129,2.0,7.0,94,0.00,,,0.00,WeatherCatV1.15B25,2013-04-09 12:17:00,
2013-04-09 08:22:00,43.0,41.4,30.02,SE,127,4.0,6.0,94,0.00,,,0.00,WeatherCatV1.15B25,2013-04-09 12:22:00,
2013-04-09 08:27:00,43.3,41.4,30.02,SE,134,1.0,5.0,93,0.00,,,0.00,WeatherCatV1.15B25,2013-04-09 12:27:00,
2013-04-09 08:32:00,43.8,41.9,30.03,SE,136,3.0,10.0,93,0.00,,,0.00,WeatherCatV1.15B25,2013-04-09 12:32:00,
2013-04-09 08:37:00,44.3,42.4,30.03,ESE,113,3.0,5.0,93,0.00,,,0.00,WeatherCatV1.15B25,2013-04-09 12:37:00,
2013-04-09 08:42:00,44.8,42.6,30.02,ESE,111,8.0,8.0,92,0.00,,,0.00,WeatherCatV1.15B25,2013-04-09 12:42:00,
2013-04-09 08:47:00,44.6,41.8,30.02,ESE,113,7.0,8.0,90,0.00,,,0.00,WeatherCatV1.15B25,2013-04-09 12:47:00,
2013-04-09 08:52:00,44.7,42.2,30.02,East,98,6.0,10.0,91,0.00,,,0.00,WeatherCatV1.15B25,2013-04-09 12:52:00,
2013-04-09 08:57:00,45.0,42.2,30.01,SE,131,9.0,10.0,90,0.00,,,0.00,WeatherCatV1.15B25,2013-04-09 12:57:00,
2013-04-09 09:02:00,45.4,42.6,30.01,ESE,117,5.0,12.0,90,0.00,,,0.00,WeatherCatV1.15B25,2013-04-09 13:02:00,
2013-04-09 09:07:00,45.6,42.8,30.01,SE,133,1.0,7.0,90,0.00,,,0.00,WeatherCatV1.15B25,2013-04-09 13:07:00,
2013-04-09 09:12:00,45.7,42.6,30.02,SE,134,7.0,12.0,89,0.00,,,0.00,WeatherCatV1.15B25,2013-04-09 13:12:00,
2013-04-09 09:17:00,45.7,42.9,30.01,SE,144,3.0,5.0,90,0.00,,,0.00,WeatherCatV1.15B25,2013-04-09 13:17:00,
2013-04-09 09:22:00,46.0,42.9,30.01,SSE,154,5.0,10.0,89,0.00,,,0.00,WeatherCatV1.15B25,2013-04-09 13:22:00,
2013-04-09 09:27:00,46.2,43.1,30.00,SE,140,6.0,11.0,89,0.00,,,0.00,WeatherCatV1.15B25,2013-04-09 13:27:00,
2013-04-09 09:32:00,46.8,43.7,30.00,SSE,161,8.0,11.0,89,0.00,,,0.00,WeatherCatV1.15B25,2013-04-09 13:32:00,
2013-04-09 09:37:00,47.2,43.8,29.99,ESE,119,10.0,10.0,88,0.00,,,0.00,WeatherCatV1.15B25,2013-04-09 13:37:00,
2013-04-09 09:42:00,47.7,43.7,29.99,East,100,11.0,14.0,86,0.00,,,0.00,WeatherCatV1.15B25,2013-04-09 13:42:00,
2013-04-09 09:47:00,47.8,43.8,29.99,SE,142,9.0,12.0,86,0.00,,,0.00,WeatherCatV1.15B25,2013-04-09 13:47:00,
2013-04-09 09:52:00,48.0,43.7,30.00,SSE,149,8.0,15.0,85,0.00,,,0.00,WeatherCatV1.15B25,2013-04-09 13:52:00,
2013-04-09 09:57:00,48.2,43.9,30.00,SSE,166,5.0,14.0,85,0.00,,,0.00,WeatherCatV1.15B25,2013-04-09 13:57:00,
2013-04-09 10:02:00,48.3,43.7,30.00,SSE,154,9.0,13.0,84,0.00,,,0.00,WeatherCatV1.15B25,2013-04-09 14:02:00,
2013-04-09 10:07:00,47.9,43.9,30.00,SSE,153,10.0,13.0,86,0.00,,,0.00,WeatherCatV1.15B25,2013-04-09 14:07:00,
2013-04-09 10:12:00,47.7,43.4,30.00,South,171,15.0,16.0,85,0.00,,,0.00,WeatherCatV1.15B25,2013-04-09 14:12:00,
2013-04-09 10:17:00,47.5,43.5,29.99,SE,140,16.0,16.0,86,0.00,,,0.00,WeatherCatV1.15B25,2013-04-09 14:17:00,
2013-04-09 10:22:00,47.2,43.2,30.00,SE,146,9.0,17.0,86,0.00,,,0.00,WeatherCatV1.15B25,2013-04-09 14:22:00,
2013-04-09 10:27:00,47.2,43.5,30.00,SE,124,8.0,15.0,87,0.00,,,0.00,WeatherCatV1.15B25,2013-04-09 14:27:00,
2013-04-09 10:32:00,47.0,43.3,30.00,ESE,113,2.0,10.0,87,0.00,,,0.00,WeatherCatV1.15B25,2013-04-09 14:32:00,
2013-04-09 10:37:00,47.1,43.4,30.01,SE,146,6.0,14.0,87,0.00,,,0.00,WeatherCatV1.15B25,2013-04-09 14:37:00,
2013-04-09 10:42:00,47.0,43.3,30.01,SE,144,6.0,9.0,87,0.00,,,0.00,WeatherCatV1.15B25,2013-04-09 14:42:00,
2013-04-09 10:47:00,47.0,43.3,30.00,ESE,120,11.0,12.0,87,0.00,,,0.00,WeatherCatV1.15B25,2013-04-09 14:47:00,
2013-04-09 10:52:00,47.2,43.5,29.99,SSE,147,4.0,9.0,87,0.00,,,0.00,WeatherCatV1.15B25,2013-04-09 14:52:00,
2013-04-09 10:57:00,47.3,43.6,29.99,SE,132,6.0,11.0,87,0.00,,,0.00,WeatherCatV1.15B25,2013-04-09 14:57:00,
2013-04-09 11:02:00,47.7,44.0,30.00,SE,130,3.0,8.0,87,0.00,,,0.00,WeatherCatV1.15B25,2013-04-09 15:02:00,
2013-04-09 11:07:00,47.8,43.8,29.99,SE,138,9.0,11.0,86,0.00,,,0.00,WeatherCatV1.15B25,2013-04-09 15:07:00,
2013-04-09 11:12:00,48.0,43.7,29.98,ESE,108,2.0,11.0,85,0.00,,,0.00,WeatherCatV1.15B25,2013-04-09 15:12:00,
2013-04-09 11:17:00,48.2,43.9,29.99,East,98,6.0,6.0,85,0.00,,,0.00,WeatherCatV1.15B25,2013-04-09 15:17:00,
2013-04-09 11:22:00,48.2,43.9,29.99,ESE,115,9.0,11.0,85,0.00,,,0.00,WeatherCatV1.15B25,2013-04-09 15:22:00,
2013-04-09 11:27:00,48.1,43.8,30.00,SSE,152,4.0,7.0,85,0.00,,,0.00,WeatherCatV1.15B25,2013-04-09 15:27:00,
2013-04-09 11:32:00,48.0,43.7,30.00,ESE,117,4.0,10.0,85,0.00,,,0.00,WeatherCatV1.15B25,2013-04-09 15:32:00,
2013-04-09 11:37:00,48.0,43.4,29.99,ESE,123,8.0,12.0,84,0.00,,,0.00,WeatherCatV1.15B25,2013-04-09 15:37:00,
2013-04-09 11:42:00,48.1,43.8,29.98,East,85,8.0,10.0,85,0.00,,,0.00,WeatherCatV1.15B25,2013-04-09 15:42:00,
2013-04-09 11:47:00,48.1,43.8,29.99,ESE,120,11.0,11.0,85,0.00,,,0.00,WeatherCatV1.15B25,2013-04-09 15:47:00,
2013-04-09 11:52:00,48.1,43.8,29.99,SE,134,5.0,10.0,85,0.00,,,0.00,WeatherCatV1.15B25,2013-04-09 15:52:00,
2013-04-09 11:57:00,48.1,43.5,29.99,ESE,123,8.0,12.0,84,0.00,,,0.00,WeatherCatV1.15B25,2013-04-09 15:57:00,
2013-04-09 12:02:00,48.0,43.4,29.99,South,178,8.0,12.0,84,0.00,,,0.00,WeatherCatV1.15B25,2013-04-09 16:02:00,
2013-04-09 12:07:00,48.0,43.4,29.99,SE,140,3.0,6.0,84,0.00,,,0.00,WeatherCatV1.15B25,2013-04-09 16:07:00,
2013-04-09 12:12:00,48.1,43.8,29.98,SE,130,3.0,7.0,85,0.00,,,0.00,WeatherCatV1.15B25,2013-04-09 16:12:00,
2013-04-09 12:17:00,48.3,43.7,29.96,ESE,112,5.0,14.0,84,0.00,,,0.00,WeatherCatV1.15B25,2013-04-09 16:17:00,
2013-04-09 12:22:00,48.3,43.4,29.95,SE,128,8.0,11.0,83,0.00,,,0.00,WeatherCatV1.15B25,2013-04-09 16:22:00,
2013-04-09 12:27:00,48.4,43.8,29.94,ESE,104,8.0,15.0,84,0.00,,,0.00,WeatherCatV1.15B25,2013-04-09 16:27:00,
2013-04-09 12:32:00,48.3,43.4,29.94,SE,142,7.0,13.0,83,0.00,,,0.00,WeatherCatV1.15B25,2013-04-09 16:32:00,
2013-04-09 12:37:00,48.3,43.7,29.93,SE,144,4.0,8.0,84,0.00,,,0.00,WeatherCatV1.15B25,2013-04-09 16:37:00,
2013-04-09 12:42:00,48.3,43.4,29.94,SE,129,7.0,15.0,83,0.00,,,0.00,WeatherCatV1.15B25,2013-04-09 16:42:00,
2013-04-09 12:47:00,48.2,43.6,29.93,SE,126,7.0,14.0,84,0.00,,,0.00,WeatherCatV1.15B25,2013-04-09 16:47:00,
2013-04-09 12:52:00,48.4,43.8,29.93,SE,129,6.0,11.0,84,0.00,,,0.00,WeatherCatV1.15B25,2013-04-09 16:52:00,
2013-04-09 12:57:00,48.7,43.8,29.94,SE,138,6.0,12.0,83,0.00,,,0.00,WeatherCatV1.15B25,2013-04-09 16:57:00,
2013-04-09 13:02:00,48.7,43.8,29.93,SE,126,7.0,8.0,83,0.00,,,0.00,WeatherCatV1.15B25,2013-04-09 17:02:00,
2013-04-09 13:07:00,48.6,43.7,29.93,ESE,123,5.0,9.0,83,0.00,,,0.00,WeatherCatV1.15B25,2013-04-09 17:07:00,
2013-04-09 13:12:00,48.6,44.0,29.93,ESE,108,5.0,8.0,84,0.00,,,0.00,WeatherCatV1.15B25,2013-04-09 17:12:00,
2013-04-09 13:17:00,48.6,43.7,29.93,SSE,150,5.0,12.0,83,0.00,,,0.00,WeatherCatV1.15B25,2013-04-09 17:17:00,
2013-04-09 13:22:00,48.5,43.9,29.92,SE,145,8.0,13.0,84,0.00,,,0.00,WeatherCatV1.15B25,2013-04-09 17:22:00,
2013-04-09 13:27:00,48.5,43.9,29.92,SE,134,7.0,11.0,84,0.00,,,0.00,WeatherCatV1.15B25,2013-04-09 17:27:00,
2013-04-09 13:32:00,48.6,44.0,29.92,SE,128,4.0,6.0,84,0.00,,,0.00,WeatherCatV1.15B25,2013-04-09 17:32:00,
2013-04-09 13:37:00,48.7,44.1,29.92,SSE,166,3.0,8.0,84,0.00,,,0.00,WeatherCatV1.15B25,2013-04-09 17:37:00,
2013-04-09 13:42:00,49.0,44.1,29.91,SE,130,5.0,11.0,83,0.00,,,0.00,WeatherCatV1.15B25,2013-04-09 17:42:00,
2013-04-09 13:47:00,49.2,44.3,29.91,ESE,123,2.0,12.0,83,0.00,,,0.00,WeatherCatV1.15B25,2013-04-09 17:47:00,
2013-04-09 13:52:00,49.7,44.7,29.90,ESE,121,7.0,12.0,83,0.00,,,0.00,WeatherCatV1.15B25,2013-04-09 17:52:00,
2013-04-09 13:57:00,50.4,45.1,29.90,ESE,115,10.0,12.0,82,0.00,,,0.00,WeatherCatV1.15B25,2013-04-09 17:57:00,
2013-04-09 14:02:00,51.0,45.7,29.90,SE,144,8.0,12.0,82,0.00,,,0.00,WeatherCatV1.15B25,2013-04-09 18:02:00,
2013-04-09 14:07:00,51.6,45.6,29.90,SSE,148,8.0,12.0,80,0.00,,,0.00,WeatherCatV1.15B25,2013-04-09 18:07:00,
2013-04-09 14:12:00,51.9,45.9,29.90,SE,142,11.0,13.0,80,0.00,,,0.00,WeatherCatV1.15B25,2013-04-09 18:12:00,
2013-04-09 14:17:00,52.2,46.2,29.89,ESE,121,12.0,12.0,80,0.00,,,0.00,WeatherCatV1.15B25,2013-04-09 18:17:00,
2013-04-09 14:22:00,52.4,46.1,29.89,SSE,155,11.0,11.0,79,0.00,,,0.00,WeatherCatV1.15B25,2013-04-09 18:22:00,
2013-04-09 14:27:00,52.5,46.2,29.89,ESE,108,7.0,11.0,79,0.00,,,0.00,WeatherCatV1.15B25,2013-04-09 18:27:00,
2013-04-09 14:32:00,52.2,45.9,29.88,SE,131,6.0,10.0,79,0.00,,,0.00,WeatherCatV1.15B25,2013-04-09 18:32:00,
2013-04-09 14:37:00,52.4,46.1,29.88,SSE,153,5.0,11.0,79,0.00,,,0.00,WeatherCatV1.15B25,2013-04-09 18:37:00,
2013-04-09 14:42:00,52.5,46.5,29.88,ESE,123,3.0,8.0,80,0.00,,,0.00,WeatherCatV1.15B25,2013-04-09 18:42:00,
2013-04-09 14:47:00,52.6,46.6,29.87,ESE,109,8.0,9.0,80,0.00,,,0.00,WeatherCatV1.15B25,2013-04-09 18:47:00,
2013-04-09 14:52:00,52.6,46.3,29.87,SSE,149,8.0,8.0,79,0.00,,,0.00,WeatherCatV1.15B25,2013-04-09 18:52:00,
2013-04-09 14:57:00,52.5,46.2,29.87,ESE,123,5.0,8.0,79,0.00,,,0.00,WeatherCatV1.15B25,2013-04-09 18:57:00,
2013-04-09 15:02:00,52.7,46.7,29.87,SSE,165,4.0,6.0,80,0.00,,,0.00,WeatherCatV1.15B25,2013-04-09 19:02:00,
2013-04-09 15:07:00,53.1,47.1,29.87,SE,142,2.0,6.0,80,0.00,,,0.00,WeatherCatV1.15B25,2013-04-09 19:07:00,
2013-04-09 15:12:00,53.5,47.1,29.87,SSE,164,7.0,8.0,79,0.00,,,0.00,WeatherCatV1.15B25,2013-04-09 19:12:00,
2013-04-09 15:17:00,54.2,47.1,29.86,South,172,4.0,10.0,77,0.00,,,0.00,WeatherCatV1.15B25,2013-04-09 19:17:00,
2013-04-09 15:22:00,54.7,47.6,29.86,SSE,158,4.0,8.0,77,0.00,,,0.00,WeatherCatV1.15B25,2013-04-09 19:22:00,
2013-04-09 15:27:00,55.1,48.0,29.86,SE,142,4.0,8.0,77,0.00,,,0.00,WeatherCatV1.15B25,2013-04-09 19:27:00,
2013-04-09 15:32:00,55.3,47.9,29.85,SE,132,6.0,9.0,76,0.00,,,0.00,WeatherCatV1.15B25,2013-04-09 19:32:00,
2013-04-09 15:37:00,55.2,47.8,29.85,ESE,116,4.0,8.0,76,0.00,,,0.00,WeatherCatV1.15B25,2013-04-09 19:37:00,
2013-04-09 15:42:00,55.5,48.1,29.85,South,179,4.0,7.0,76,0.00,,,0.00,WeatherCatV1.15B25,2013-04-09 19:42:00,
2013-04-09 15:47:00,55.9,48.1,29.85,East,95,2.0,6.0,75,0.00,,,0.00,WeatherCatV1.15B25,2013-04-09 19:47:00,
2013-04-09 15:52:00,56.1,48.3,29.85,SE,142,4.0,6.0,75,0.00,,,0.00,WeatherCatV1.15B25,2013-04-09 19:52:00,
2013-04-09 15:57:00,56.1,47.9,29.85,SE,140,2.0,5.0,74,0.00,,,0.00,WeatherCatV1.15B25,2013-04-09 19:57:00,
2013-04-09 16:02:00,56.2,48.0,29.84,East,97,5.0,5.0,74,0.00,,,0.00,WeatherCatV1.15B25,2013-04-09 20:02:00,
2013-04-09 16:07:00,56.4,48.2,29.84,East,97,2.0,7.0,74,0.00,,,0.00,WeatherCatV1.15B25,2013-04-09 20:07:00,
2013-04-09 16:12:00,56.6,48.4,29.84,ENE,73,5.0,5.0,74,0.00,,,0.00,WeatherCatV1.15B25,2013-04-09 20:12:00,
2013-04-09 16:17:00,56.6,48.0,29.83,East,91,3.0,6.0,73,0.00,,,0.00,WeatherCatV1.15B25,2013-04-09 20:17:00,
2013-04-09 16:22:00,56.4,48.2,29.84,ENE,61,2.0,5.0,74,0.00,,,0.00,WeatherCatV1.15B25,2013-04-09 20:22:00,
2013-04-09 16:27:00,56.2,48.0,29.84,ENE,59,2.0,5.0,74,0.00,,,0.00,WeatherCatV1.15B25,2013-04-09 20:27:00,
2013-04-09 16:32:00,55.9,47.7,29.84,ENE,63,3.0,4.0,74,0.00,,,0.00,WeatherCatV1.15B25,2013-04-09 20:32:00,
2013-04-09 16:37:00,55.8,48.0,29.83,ENE,61,2.0,4.0,75,0.00,,,0.00,WeatherCatV1.15B25,2013-04-09 20:37:00,
2013-04-09 16:42:00,55.7,47.9,29.83,East,101,5.0,6.0,75,0.00,,,0.00,WeatherCatV1.15B25,2013-04-09 20:42:00,
2013-04-09 16:47:00,55.7,47.9,29.82,East,87,3.0,5.0,75,0.00,,,0.00,WeatherCatV1.15B25,2013-04-09 20:47:00,
2013-04-09 16:52:00,55.6,47.8,29.83,East,87,3.0,5.0,75,0.00,,,0.00,WeatherCatV1.15B25,2013-04-09 20:52:00,
2013-04-09 16:57:00,55.5,48.1,29.83,East,98,3.0,6.0,76,0.00,,,0.00,WeatherCatV1.15B25,2013-04-09 20:57:00,
2013-04-09 17:02:00,55.4,48.0,29.82,East,96,2.0,5.0,76,0.00,,,0.00,WeatherCatV1.15B25,2013-04-09 21:02:00,
2013-04-09 17:08:00,55.3,47.9,29.83,East,84,3.0,6.0,76,0.00,,,0.00,WeatherCatV1.15B25,2013-04-09 21:08:00,
2013-04-09 17:13:00,55.3,47.9,29.82,ENE,76,3.0,4.0,76,0.00,,,0.00,WeatherCatV1.15B25,2013-04-09 21:13:00,
2013-04-09 17:18:00,55.3,47.9,29.82,East,90,3.0,7.0,76,0.00,,,0.00,WeatherCatV1.15B25,2013-04-09 21:18:00,
2013-04-09 17:23:00,55.2,47.8,29.82,East,90,2.0,6.0,76,0.00,,,0.00,WeatherCatV1.15B25,2013-04-09 21:23:00,
2013-04-09 17:28:00,55.2,47.8,29.82,ESE,114,5.0,7.0,76,0.00,,,0.00,WeatherCatV1.15B25,2013-04-09 21:28:00,
2013-04-09 17:33:00,55.2,47.8,29.82,East,85,5.0,7.0,76,0.00,,,0.00,WeatherCatV1.15B25,2013-04-09 21:33:00,
2013-04-09 17:38:00,55.2,47.8,29.82,ENE,75,5.0,7.0,76,0.00,,,0.00,WeatherCatV1.15B25,2013-04-09 21:38:00,
2013-04-09 17:43:00,55.1,47.7,29.82,ENE,76,3.0,3.0,76,0.00,,,0.00,WeatherCatV1.15B25,2013-04-09 21:43:00,
2013-04-09 17:48:00,55.1,47.7,29.83,East,88,3.0,5.0,76,0.00,,,0.00,WeatherCatV1.15B25,2013-04-09 21:48:00,
2013-04-09 17:53:00,55.1,48.0,29.82,East,88,2.0,2.0,77,0.00,,,0.00,WeatherCatV1.15B25,2013-04-09 21:53:00,
2013-04-09 17:58:00,55.1,48.0,29.83,East,88,3.0,3.0,77,0.00,,,0.00,WeatherCatV1.15B25,2013-04-09 21:58:00,
2013-04-09 18:03:00,55.0,47.6,29.83,East,85,2.0,5.0,76,0.00,,,0.00,WeatherCatV1.15B25,2013-04-09 22:03:00,
2013-04-09 18:08:00,54.9,47.8,29.84,East,85,1.0,3.0,77,0.00,,,0.00,WeatherCatV1.15B25,2013-04-09 22:08:00,
2013-04-09 18:13:00,54.8,48.1,29.83,ENE,69,3.0,4.0,78,0.00,,,0.00,WeatherCatV1.15B25,2013-04-09 22:13:00,
2013-04-09 18:18:00,54.5,47.8,29.84,NE,53,2.0,3.0,78,0.00,,,0.00,WeatherCatV1.15B25,2013-04-09 22:18:00,
2013-04-09 18:23:00,54.3,47.6,29.84,East,84,1.0,3.0,78,0.00,,,0.00,WeatherCatV1.15B25,2013-04-09 22:23:00,
2013-04-09 18:28:00,54.2,47.5,29.83,East,84,2.0,2.0,78,0.00,,,0.00,WeatherCatV1.15B25,2013-04-09 22:28:00,
2013-04-09 18:33:00,54.2,47.8,29.83,East,88,3.0,5.0,79,0.00,,,0.00,WeatherCatV1.15B25,2013-04-09 22:33:00,
2013-04-09 18:38:00,54.2,47.8,29.83,ESE,114,4.0,4.0,79,0.00,,,0.00,WeatherCatV1.15B25,2013-04-09 22:38:00,
2013-04-09 18:43:00,54.2,47.5,29.84,East,98,2.0,2.0,78,0.00,,,0.00,WeatherCatV1.15B25,2013-04-09 22:43:00,
2013-04-09 18:48:00,54.2,47.8,29.84,ENE,76,2.0,3.0,79,0.00,,,0.00,WeatherCatV1.15B25,2013-04-09 22:48:00,
2013-04-09 18:53:00,54.2,47.8,29.84,ENE,66,0.0,2.0,79,0.00,,,0.00,WeatherCatV1.15B25,2013-04-09 22:53:00,
2013-04-09 18:58:00,54.3,47.9,29.83,ENE,66,2.0,2.0,79,0.00,,,0.00,WeatherCatV1.15B25,2013-04-09 22:58:00,
2013-04-09 19:03:00,54.2,47.8,29.83,ENE,66,3.0,3.0,79,0.00,,,0.00,WeatherCatV1.15B25,2013-04-09 23:03:00,
2013-04-09 19:08:00,54.2,47.8,29.83,ENE,66,3.0,3.0,79,0.00,,,0.00,WeatherCatV1.15B25,2013-04-09 23:08:00,
2013-04-09 19:13:00,54.3,47.9,29.83,ENE,67,1.0,4.0,79,0.00,,,0.00,WeatherCatV1.15B25,2013-04-09 23:13:00,
2013-04-09 19:18:00,54.4,48.0,29.83,ENE,67,2.0,3.0,79,0.00,,,0.00,WeatherCatV1.15B25,2013-04-09 23:18:00,
2013-04-09 19:23:00,54.4,48.0,29.83,ENE,68,3.0,4.0,79,0.00,,,0.00,WeatherCatV1.15B25,2013-04-09 23:23:00,
2013-04-09 19:28:00,54.4,47.7,29.83,ENE,68,2.0,4.0,78,0.00,,,0.00,WeatherCatV1.15B25,2013-04-09 23:28:00,
2013-04-09 19:33:00,54.3,47.6,29.83,ENE,73,4.0,4.0,78,0.00,,,0.00,WeatherCatV1.15B25,2013-04-09 23:33:00,
2013-04-09 19:38:00,54.4,47.7,29.83,East,96,3.0,5.0,78,0.00,,,0.00,WeatherCatV1.15B25,2013-04-09 23:38:00,
2013-04-09 19:43:00,54.3,47.6,29.83,East,88,3.0,5.0,78,0.00,,,0.00,WeatherCatV1.15B25,2013-04-09 23:43:00,
2013-04-09 19:48:00,54.3,47.6,29.83,ENE,77,2.0,3.0,78,0.00,,,0.00,WeatherCatV1.15B25,2013-04-09 23:48:00,
2013-04-09 19:53:00,54.2,47.5,29.83,East,88,3.0,5.0,78,0.00,,,0.00,WeatherCatV1.15B25,2013-04-09 23:53:00,
2013-04-09 19:58:00,54.2,47.8,29.83,East,95,3.0,5.0,79,0.00,,,0.00,WeatherCatV1.15B25,2013-04-09 23:58:00,
2013-04-09 20:03:00,54.2,47.8,29.83,East,85,2.0,5.0,79,0.00,,,0.00,WeatherCatV1.15B25,2013-04-10 00:03:00,
2013-04-09 20:08:00,54.2,47.8,29.83,East,86,2.0,5.0,79,0.00,,,0.00,WeatherCatV1.15B25,2013-04-10 00:08:00,
2013-04-09 20:13:00,54.1,47.7,29.82,ESE,115,4.0,6.0,79,0.00,,,0.00,WeatherCatV1.15B25,2013-04-10 00:13:00,
2013-04-09 20:18:00,54.1,47.7,29.82,SE,136,2.0,4.0,79,0.00,,,0.00,WeatherCatV1.15B25,2013-04-10 00:18:00,
2013-04-09 20:23:00,53.9,47.5,29.82,SE,144,3.0,5.0,79,0.00,,,0.00,WeatherCatV1.15B25,2013-04-10 00:23:00,
2013-04-09 20:28:00,53.7,47.3,29.83,East,84,2.0,6.0,79,0.00,,,0.00,WeatherCatV1.15B25,2013-04-10 00:28:00,
2013-04-09 20:33:00,53.5,47.1,29.84,East,86,3.0,5.0,79,0.00,,,0.00,WeatherCatV1.15B25,2013-04-10 00:33:00,
2013-04-09 20:38:00,53.2,47.2,29.84,SE,126,2.0,7.0,80,0.00,,,0.00,WeatherCatV1.15B25,2013-04-10 00:38:00,
2013-04-09 20:43:00,53.1,47.1,29.84,SE,127,2.0,5.0,80,0.00,,,0.00,WeatherCatV1.15B25,2013-04-10 00:43:00,
2013-04-09 20:48:00,52.8,47.1,29.84,ESE,105,2.0,4.0,81,0.00,,,0.00,WeatherCatV1.15B25,2013-04-10 00:48:00,
2013-04-09 20:53:00,52.5,46.8,29.84,ESE,106,2.0,4.0,81,0.00,,,0.00,WeatherCatV1.15B25,2013-04-10 00:53:00,
2013-04-09 20:58:00,52.2,46.9,29.84,ESE,123,2.0,5.0,82,0.00,,,0.00,WeatherCatV1.15B25,2013-04-10 00:58:00,
2013-04-09 21:03:00,52.0,46.7,29.85,ENE,76,3.0,5.0,82,0.00,,,0.00,WeatherCatV1.15B25,2013-04-10 01:03:00,
2013-04-09 21:08:00,51.8,46.5,29.87,NNE,17,7.0,10.0,82,0.00,,,0.00,WeatherCatV1.15B25,2013-04-10 01:08:00,
2013-04-09 21:13:00,51.3,46.3,29.87,NE,43,4.0,5.0,83,0.00,,,0.00,WeatherCatV1.15B25,2013-04-10 01:13:00,
2013-04-09 21:18:00,50.8,45.8,29.87,ENE,63,5.0,6.0,83,0.00,,,0.00,WeatherCatV1.15B25,2013-04-10 01:18:00,
2013-04-09 21:23:00,50.4,45.7,29.87,NE,48,4.0,4.0,84,0.00,,,0.00,WeatherCatV1.15B25,2013-04-10 01:23:00,
2013-04-09 21:28:00,50.2,45.6,29.87,ENE,72,5.0,6.0,84,0.00,,,0.00,WeatherCatV1.15B25,2013-04-10 01:28:00,
2013-04-09 21:33:00,50.1,45.8,29.87,NE,53,5.0,6.0,85,0.00,,,0.00,WeatherCatV1.15B25,2013-04-10 01:33:00,
2013-04-09 21:38:00,50.0,46.0,29.89,NNE,19,5.0,8.0,86,0.00,,,0.00,WeatherCatV1.15B25,2013-04-10 01:38:00,
2013-04-09 21:43:00,49.9,45.6,29.90,NNE,25,5.0,12.0,85,0.00,,,0.00,WeatherCatV1.15B25,2013-04-10 01:43:00,
2013-04-09 21:48:00,49.7,45.7,29.90,NNE,15,5.0,10.0,86,0.00,,,0.00,WeatherCatV1.15B25,2013-04-10 01:48:00,
2013-04-09 21:53:00,49.6,45.6,29.90,NNE,28,8.0,10.0,86,0.00,,,0.00,WeatherCatV1.15B25,2013-04-10 01:53:00,
2013-04-09 21:58:00,49.4,45.4,29.90,NE,44,9.0,10.0,86,0.00,,,0.00,WeatherCatV1.15B25,2013-04-10 01:58:00,
2013-04-09 22:03:00,49.1,45.1,29.91,NNE,18,10.0,13.0,86,0.00,,,0.00,WeatherCatV1.15B25,2013-04-10 02:03:00,
2013-04-09 22:08:00,48.5,44.5,29.91,NE,41,9.0,15.0,86,0.00,,,0.00,WeatherCatV1.15B25,2013-04-10 02:08:00,
2013-04-09 22:13:00,48.1,44.7,29.91,ENE,57,5.0,7.0,88,0.00,,,0.00,WeatherCatV1.15B25,2013-04-10 02:13:00,
2013-04-09 22:18:00,47.8,44.4,29.91,NE,36,3.0,6.0,88,0.00,,,0.00,WeatherCatV1.15B25,2013-04-10 02:18:00,
2013-04-09 22:23:00,47.7,44.6,29.91,NE,53,4.0,7.0,89,0.00,,,0.00,WeatherCatV1.15B25,2013-04-10 02:23:00,
2013-04-09 22:28:00,47.6,44.5,29.91,NNE,19,5.0,8.0,89,0.00,,,0.00,WeatherCatV1.15B25,2013-04-10 02:28:00,
2013-04-09 22:33:00,47.5,44.4,29.92,NNE,31,3.0,10.0,89,0.00,,,0.00,WeatherCatV1.15B25,2013-04-10 02:33:00,
2013-04-09 22:38:00,47.5,44.4,29.92,East,79,6.0,6.0,89,0.00,,,0.00,WeatherCatV1.15B25,2013-04-10 02:38:00,
2013-04-09 22:43:00,47.5,44.4,29.92,NE,34,6.0,7.0,89,0.00,,,0.00,WeatherCatV1.15B25,2013-04-10 02:43:00,
2013-04-09 22:48:00,47.4,44.6,29.92,NNE,29,4.0,4.0,90,0.00,,,0.00,WeatherCatV1.15B25,2013-04-10 02:48:00,
2013-04-09 22:53:00,47.4,44.6,29.92,NE,34,6.0,6.0,90,0.00,,,0.00,WeatherCatV1.15B25,2013-04-10 02:53:00,
2013-04-09 22:58:00,47.4,44.6,29.92,NNE,24,4.0,5.0,90,0.00,,,0.00,WeatherCatV1.15B25,2013-04-10 02:58:00,
2013-04-09 23:03:00,47.4,44.6,29.91,NNE,28,3.0,4.0,90,0.00,,,0.00,WeatherCatV1.15B25,2013-04-10 03:03:00,
2013-04-09 23:08:00,47.4,44.6,29.91,NNE,28,4.0,6.0,90,0.00,,,0.00,WeatherCatV1.15B25,2013-04-10 03:08:00,
2013-04-09 23:13:00,47.4,44.6,29.91,NNE,26,4.0,5.0,90,0.00,,,0.00,WeatherCatV1.15B25,2013-04-10 03:13:00,
2013-04-09 23:18:00,47.4,44.6,29.91,NE,34,4.0,5.0,90,0.00,,,0.00,WeatherCatV1.15B25,2013-04-10 03:18:00,
2013-04-09 23:23:00,47.4,44.6,29.90,NNE,30,6.0,6.0,90,0.00,,,0.00,WeatherCatV1.15B25,2013-04-10 03:23:00,
2013-04-09 23:28:00,47.4,44.6,29.91,NE,36,6.0,8.0,90,0.00,,,0.00,WeatherCatV1.15B25,2013-04-10 03:28:00,
2013-04-09 23:33:00,47.4,44.6,29.91,NE,53,3.0,3.0,90,0.00,,,0.00,WeatherCatV1.15B25,2013-04-10 03:33:00,
2013-04-09 23:38:00,47.4,44.6,29.91,NE,49,3.0,4.0,90,0.00,,,0.00,WeatherCatV1.15B25,2013-04-10 03:38:00,
2013-04-09 23:43:00,47.4,44.6,29.90,ENE,59,3.0,4.0,90,0.00,,,0.00,WeatherCatV1.15B25,2013-04-10 03:43:00,
2013-04-09 23:48:00,47.3,44.8,29.90,NE,34,5.0,8.0,91,0.00,,,0.00,WeatherCatV1.15B25,2013-04-10 03:48:00,
2013-04-09 23:53:00,47.3,44.8,29.90,NE,34,4.0,7.0,91,0.00,,,0.00,WeatherCatV1.15B25,2013-04-10 03:53:00,
2013-04-09 23:58:00,47.3,44.8,29.90,NE,44,5.0,6.0,91,0.00,,,0.00,WeatherCatV1.15B25,2013-04-10 03:58:00,